createdAt,value
2022-11-29T00:01:29.948Z,6.72
2022-11-29T00:03:57.558Z,6.73
2022-11-29T00:06:27.443Z,6.85
2022-11-29T00:08:55.950Z,6.98
2022-11-29T00:11:45.326Z,7.06
2022-11-29T00:14:15.826Z,7.19
2022-11-29T00:16:43.206Z,6.94
2022-11-29T00:19:11.094Z,6.67
2022-11-29T00:21:37.902Z,6.82
2022-11-29T00:24:05.411Z,6.59
2022-11-29T00:26:37.117Z,7.22
2022-11-29T00:29:05.001Z,6.94
2022-11-29T00:31:35.293Z,7.09
2022-11-29T00:34:04.424Z,7.16
2022-11-29T00:36:31.177Z,7.09
2022-11-29T00:38:58.691Z,6.84
2022-11-29T00:41:25.743Z,6.52
2022-11-29T00:43:52.449Z,6.92
2022-11-29T00:46:19.120Z,6.78
2022-11-29T00:48:45.935Z,6.85
2022-11-29T00:51:15.609Z,7.25
2022-11-29T00:53:42.342Z,6.42
2022-11-29T00:56:09.076Z,6.32
2022-11-29T00:58:36.456Z,6.32
2022-11-29T01:01:04.269Z,6.33
2022-11-29T01:03:31.297Z,6.53
2022-11-29T01:06:05.956Z,6.76
2022-11-29T01:08:32.903Z,6.85
2022-11-29T01:11:13.733Z,7.17
2022-11-29T01:13:41.437Z,6.95
2022-11-29T01:16:10.168Z,7.18
2022-11-29T01:18:40.431Z,6.77
2022-11-29T01:21:11.403Z,6.95
2022-11-29T01:23:38.678Z,6.54
2022-11-29T01:26:21.011Z,6.75
2022-11-29T01:28:50.277Z,7.04
2022-11-29T01:31:24.229Z,7.13
2022-11-29T01:33:58.177Z,6.54
2022-11-29T01:36:25.694Z,6.82
2022-11-29T01:38:52.924Z,6.98
2022-11-29T01:41:25.655Z,6.74
2022-11-29T01:44:04.096Z,7.09
2022-11-29T01:46:40.462Z,6.54
2022-11-29T01:49:25.175Z,6.69
2022-11-29T01:51:55.793Z,6.67
2022-11-29T01:54:22.836Z,6.94
2022-11-29T01:56:51.820Z,6.64
2022-11-29T01:59:22.037Z,7.01
2022-11-29T02:01:48.931Z,6.86
2022-11-29T02:04:18.763Z,7.09
2022-11-29T02:06:46.191Z,7.06
2022-11-29T02:09:23.691Z,7.38
2022-11-29T02:12:23.003Z,7.17
2022-11-29T02:15:23.697Z,7.17
2022-11-29T02:18:02.711Z,7.04
2022-11-29T02:20:51.151Z,7.14
2022-11-29T02:23:24.438Z,7.37
2022-11-29T02:26:15.854Z,7.06
2022-11-29T02:29:10.455Z,7.24
2022-11-29T02:31:57.168Z,7.12
2022-11-29T02:34:52.035Z,7.13
2022-11-29T02:37:57.132Z,7.01
2022-11-29T02:40:53.464Z,7.07
2022-11-29T02:43:54.107Z,7.14
2022-11-29T02:46:51.866Z,6.75
2022-11-29T02:50:03.161Z,6.68
2022-11-29T02:52:42.934Z,6.35
2022-11-29T02:55:16.176Z,6.66
2022-11-29T02:57:47.241Z,6.96
2022-11-29T03:00:18.261Z,6.29
2022-11-29T03:03:03.426Z,6.54
2022-11-29T03:05:35.864Z,6.36
2022-11-29T03:08:39.816Z,7.13
2022-11-29T03:11:09.607Z,7.21
2022-11-29T03:14:14.559Z,7.31
2022-11-29T03:16:58.069Z,6.95
2022-11-29T03:19:57.342Z,7.35
2022-11-29T03:22:57.886Z,7.25
2022-11-29T03:25:24.552Z,6.81
2022-11-29T03:28:15.778Z,7.33
2022-11-29T03:30:58.914Z,6.93
2022-11-29T03:33:46.966Z,7.31
2022-11-29T03:36:32.279Z,6.93
2022-11-29T03:39:05.516Z,7.05
2022-11-29T03:41:46.709Z,7.01
2022-11-29T03:44:17.733Z,7.03
2022-11-29T03:46:54.708Z,7.42
2022-11-29T03:49:27.479Z,6.97
2022-11-29T03:52:36.595Z,7.17
2022-11-29T03:55:32.077Z,7.20
2022-11-29T03:58:34.711Z,6.84
2022-11-29T04:01:35.675Z,7.02
2022-11-29T04:04:27.764Z,7.28
2022-11-29T04:07:16.546Z,6.75
2022-11-29T04:10:09.503Z,7.28
2022-11-29T04:13:04.234Z,7.14
2022-11-29T04:15:54.719Z,7.15
2022-11-29T04:18:36.976Z,7.05
2022-11-29T04:21:46.713Z,6.94
2022-11-29T04:24:31.455Z,6.67
2022-11-29T04:27:19.232Z,6.77
2022-11-29T04:30:21.293Z,6.99
2022-11-29T04:32:50.984Z,6.95
2022-11-29T04:35:57.735Z,7.11
2022-11-29T04:38:46.829Z,7.10
2022-11-29T04:41:35.412Z,6.75
2022-11-29T04:44:08.175Z,6.90
2022-11-29T04:46:59.588Z,6.70
2022-11-29T04:49:29.235Z,6.37
2022-11-29T04:51:55.850Z,6.43
2022-11-29T04:54:47.516Z,7.09
2022-11-29T04:57:37.685Z,7.18
2022-11-29T05:00:15.093Z,7.20
2022-11-29T05:03:35.615Z,7.31
2022-11-29T05:06:23.951Z,7.27
2022-11-29T05:08:56.489Z,7.36
2022-11-29T05:11:27.038Z,7.30
2022-11-29T05:14:15.136Z,7.04
2022-11-29T05:16:53.753Z,6.93
2022-11-29T05:20:05.021Z,7.10
2022-11-29T05:22:50.469Z,6.60
2022-11-29T05:25:42.027Z,6.95
2022-11-29T05:28:26.009Z,6.43
2022-11-29T05:31:11.447Z,6.88
2022-11-29T05:33:56.911Z,7.09
2022-11-29T05:36:54.104Z,7.36
2022-11-29T05:39:37.664Z,7.24
2022-11-29T05:42:19.848Z,7.26
2022-11-29T05:45:04.827Z,6.84
2022-11-29T05:47:43.982Z,7.30
2022-11-29T05:50:39.847Z,7.42
2022-11-29T05:53:42.008Z,7.36
2022-11-29T05:56:26.891Z,7.03
2022-11-29T05:59:05.952Z,6.75
2022-11-29T06:01:50.233Z,6.96
2022-11-29T06:04:56.026Z,6.91
2022-11-29T06:07:48.466Z,7.32
2022-11-29T06:10:20.116Z,6.70
2022-11-29T06:13:05.805Z,6.51
2022-11-29T06:16:10.525Z,6.69
2022-11-29T06:18:51.052Z,6.53
2022-11-29T06:21:25.144Z,6.57
2022-11-29T06:24:11.869Z,6.91
2022-11-29T06:26:58.127Z,7.18
2022-11-29T06:29:57.399Z,6.95
2022-11-29T06:33:03.178Z,7.11
2022-11-29T06:35:36.019Z,7.10
2022-11-29T06:38:30.142Z,7.18
2022-11-29T06:41:01.884Z,7.23
2022-11-29T06:43:30.225Z,6.89
2022-11-29T06:45:59.587Z,7.04
2022-11-29T06:48:28.948Z,7.11
2022-11-29T06:51:29.735Z,7.11
2022-11-29T06:54:19.492Z,6.85
2022-11-29T06:57:04.283Z,6.62
2022-11-29T06:59:44.250Z,6.90
2022-11-29T07:02:48.768Z,6.94
2022-11-29T07:05:24.859Z,7.12
2022-11-29T07:07:55.645Z,6.74
2022-11-29T07:10:25.706Z,6.89
2022-11-29T07:12:53.783Z,7.05
2022-11-29T07:15:22.527Z,7.15
2022-11-29T07:18:14.323Z,7.09
2022-11-29T07:20:50.926Z,6.92
2022-11-29T07:23:27.813Z,6.75
2022-11-29T07:25:57.409Z,6.88
2022-11-29T07:28:43.620Z,6.74
2022-11-29T07:31:25.257Z,6.24
2022-11-29T07:34:16.275Z,6.61
2022-11-29T07:36:45.823Z,6.13
2022-11-29T07:39:50.919Z,6.14
2022-11-29T07:42:31.449Z,6.74
2022-11-29T07:45:26.041Z,6.88
2022-11-29T07:47:53.223Z,6.75
2022-11-29T07:50:23.160Z,6.91
2022-11-29T07:52:50.051Z,7.12
2022-11-29T07:55:20.074Z,7.20
2022-11-29T07:57:47.970Z,7.23
2022-11-29T08:00:23.198Z,7.11
2022-11-29T08:02:53.427Z,6.91
2022-11-29T08:05:20.169Z,6.65
2022-11-29T08:07:47.770Z,7.03
2022-11-29T08:10:15.762Z,7.37
2022-11-29T08:12:48.302Z,7.07
2022-11-29T08:15:15.151Z,7.20
2022-11-29T08:17:41.961Z,7.00
2022-11-29T08:20:11.083Z,7.35
2022-11-29T08:22:39.117Z,6.72
2022-11-29T08:25:10.753Z,7.40
2022-11-29T08:27:38.788Z,7.25
2022-11-29T08:30:07.202Z,7.34
2022-11-29T08:32:34.669Z,7.49
2022-11-29T08:35:01.286Z,7.47
2022-11-29T08:37:27.997Z,7.16
2022-11-29T08:39:55.352Z,7.43
2022-11-29T08:42:29.142Z,7.44
2022-11-29T08:44:55.841Z,7.32
2022-11-29T08:47:39.872Z,7.57
2022-11-29T08:50:14.349Z,7.20
2022-11-29T08:53:03.270Z,7.20
2022-11-29T08:55:48.142Z,7.64
2022-11-29T08:58:18.696Z,7.37
2022-11-29T09:00:47.347Z,7.41
2022-11-29T09:03:32.832Z,7.17
2022-11-29T09:06:10.464Z,7.54
2022-11-29T09:08:38.987Z,7.18
2022-11-29T09:11:16.305Z,7.41
2022-11-29T09:13:45.374Z,6.77
2022-11-29T09:16:14.901Z,7.06
2022-11-29T09:18:43.910Z,7.34
2022-11-29T09:21:14.735Z,7.40
2022-11-29T09:23:43.972Z,7.42
2022-11-29T09:26:16.162Z,7.10
2022-11-29T09:28:42.870Z,7.19
2022-11-29T09:31:14.768Z,6.94
2022-11-29T09:33:42.063Z,7.02
2022-11-29T09:36:12.702Z,7.14
2022-11-29T09:38:40.759Z,6.95
2022-11-29T09:41:26.097Z,7.33
2022-11-29T09:44:17.133Z,6.92
2022-11-29T09:47:19.996Z,6.79
2022-11-29T09:50:01.901Z,6.99
2022-11-29T09:52:53.989Z,6.84
2022-11-29T09:55:37.919Z,7.32
2022-11-29T09:58:09.690Z,6.55
2022-11-29T10:00:42.368Z,6.91
2022-11-29T10:03:23.333Z,7.36
2022-11-29T10:05:57.470Z,7.01
2022-11-29T10:08:28.625Z,6.95
2022-11-29T10:11:15.166Z,7.31
2022-11-29T10:13:48.971Z,7.35
2022-11-29T10:16:23.060Z,7.27
2022-11-29T10:19:20.869Z,7.26
2022-11-29T10:21:57.335Z,7.37
2022-11-29T10:24:26.975Z,7.40
2022-11-29T10:26:53.636Z,7.19
2022-11-29T10:29:20.825Z,6.67
2022-11-29T10:31:49.628Z,6.55
2022-11-29T10:34:22.433Z,7.28
2022-11-29T10:36:59.573Z,7.61
2022-11-29T10:39:42.225Z,7.61
2022-11-29T10:42:35.332Z,7.59
2022-11-29T10:45:03.036Z,7.63
2022-11-29T10:47:30.023Z,8.02
2022-11-29T10:49:57.356Z,7.69
2022-11-29T10:52:27.006Z,8.01
2022-11-29T10:54:58.642Z,7.17
2022-11-29T10:57:25.399Z,7.13
2022-11-29T11:00:06.875Z,7.51
2022-11-29T11:02:34.440Z,7.61
2022-11-29T11:05:01.616Z,7.90
2022-11-29T11:07:37.221Z,7.25
2022-11-29T11:10:26.713Z,7.54
2022-11-29T11:13:07.097Z,7.68
2022-11-29T11:15:34.044Z,6.98
2022-11-29T11:18:04.922Z,7.21
2022-11-29T11:20:41.566Z,7.92
2022-11-29T11:23:38.646Z,7.76
2022-11-29T11:26:11.473Z,7.74
2022-11-29T11:28:49.501Z,8.09
2022-11-29T11:31:27.849Z,7.60
2022-11-29T11:33:55.090Z,8.34
2022-11-29T11:36:25.104Z,7.77
2022-11-29T11:38:51.767Z,7.77
2022-11-29T11:41:21.603Z,7.40
2022-11-29T11:43:58.866Z,7.78
2022-11-29T11:46:48.552Z,7.69
2022-11-29T11:49:53.528Z,8.06
2022-11-29T11:52:32.184Z,7.65
2022-11-29T11:55:04.790Z,7.54
2022-11-29T11:57:34.015Z,7.67
2022-11-29T12:00:07.161Z,7.90
2022-11-29T12:02:40.968Z,8.17
2022-11-29T12:05:15.675Z,7.86
2022-11-29T12:08:09.860Z,8.05
2022-11-29T12:10:40.504Z,7.85
2022-11-29T12:13:17.079Z,7.21
2022-11-29T12:15:47.290Z,7.60
2022-11-29T12:18:33.836Z,7.81
2022-11-29T12:21:23.447Z,8.04
2022-11-29T12:23:54.199Z,8.01
2022-11-29T12:26:55.954Z,8.17
2022-11-29T12:29:18.559Z,8.27
2022-11-29T12:54:51.114Z,6.97
2022-11-29T12:57:35.905Z,6.68
2022-11-29T13:00:05.765Z,6.85
2022-11-29T13:02:44.465Z,7.27
2022-11-29T13:05:38.946Z,7.05
2022-11-29T13:08:31.313Z,6.96
2022-11-29T13:11:22.733Z,6.56
2022-11-29T13:14:08.320Z,6.37
2022-11-29T13:16:45.749Z,6.37
2022-11-29T13:19:17.721Z,6.27
2022-11-29T13:21:56.797Z,6.73
2022-11-29T13:24:41.224Z,6.65
2022-11-29T13:27:16.024Z,6.78
2022-11-29T13:29:43.054Z,6.14
2022-11-29T13:32:26.987Z,6.54
2022-11-29T13:34:59.394Z,6.69
2022-11-29T13:37:35.750Z,6.62
2022-11-29T13:40:31.743Z,6.47
2022-11-29T13:43:30.313Z,6.52
2022-11-29T13:46:25.228Z,6.63
2022-11-29T13:48:54.100Z,6.85
2022-11-29T13:51:29.705Z,6.89
2022-11-29T13:53:59.827Z,6.91
2022-11-29T13:56:36.305Z,6.60
2022-11-29T13:59:08.602Z,6.80
2022-11-29T14:01:45.354Z,6.83
2022-11-29T14:04:39.404Z,7.07
2022-11-29T14:07:05.937Z,6.48
2022-11-29T14:09:35.434Z,6.97
2022-11-29T14:12:39.319Z,6.88
2022-11-29T14:15:21.006Z,6.97
2022-11-29T14:17:55.724Z,6.36
2022-11-29T14:20:22.278Z,6.28
2022-11-29T14:23:30.989Z,6.76
2022-11-29T14:25:57.746Z,6.31
2022-11-29T14:28:24.292Z,6.60
2022-11-29T14:30:55.467Z,6.81
2022-11-29T14:33:44.688Z,6.70
2022-11-29T14:36:29.926Z,6.75
2022-11-29T14:39:20.630Z,6.72
2022-11-29T14:42:14.545Z,6.55
2022-11-29T14:44:53.662Z,6.54
2022-11-29T14:47:27.181Z,6.69
2022-11-29T14:49:56.141Z,6.48
2022-11-29T14:52:28.568Z,5.89
2022-11-29T14:55:16.626Z,6.49
2022-11-29T14:58:01.909Z,6.51
2022-11-29T15:00:34.741Z,6.34
2022-11-29T15:03:13.000Z,6.60
2022-11-29T15:05:42.536Z,6.98
2022-11-29T15:08:27.804Z,6.68
2022-11-29T15:11:01.042Z,6.69
2022-11-29T15:13:35.949Z,6.55
2022-11-29T15:16:58.037Z,6.51
2022-11-29T15:19:46.436Z,6.32
2022-11-29T15:22:29.502Z,6.29
2022-11-29T15:25:13.020Z,6.29
2022-11-29T15:27:56.847Z,6.26
2022-11-29T15:30:33.374Z,6.37
2022-11-29T15:33:01.888Z,6.41
2022-11-29T15:35:29.327Z,6.42
2022-11-29T15:37:56.693Z,6.42
2022-11-29T15:40:35.164Z,6.38
2022-11-29T15:43:22.886Z,6.38
2022-11-29T15:45:55.509Z,6.25
2022-11-29T15:48:24.985Z,6.22
2022-11-29T15:51:18.021Z,6.35
2022-11-29T15:53:54.049Z,6.38
2022-11-29T15:56:36.392Z,6.54
2022-11-29T15:59:14.921Z,6.59
2022-11-29T16:01:44.982Z,5.87
2022-11-29T16:04:29.736Z,6.61
2022-11-29T16:06:57.591Z,6.56
2022-11-29T16:09:38.898Z,6.41
2022-11-29T16:12:11.556Z,6.58
2022-11-29T16:14:48.745Z,6.63
2022-11-29T16:17:15.501Z,6.42
2022-11-29T16:19:43.046Z,6.52
2022-11-29T16:22:12.390Z,6.35
2022-11-29T16:24:45.895Z,6.38
2022-11-29T16:27:14.163Z,6.23
2022-11-29T16:29:46.069Z,6.44
2022-11-29T16:32:30.192Z,6.82
2022-11-29T16:35:05.364Z,6.39
2022-11-29T16:37:39.713Z,6.65
2022-11-29T16:40:07.444Z,6.54
2022-11-29T16:42:34.677Z,6.84
2022-11-29T16:45:19.894Z,6.93
2022-11-29T16:47:47.694Z,6.61
2022-11-29T16:50:21.088Z,6.43
2022-11-29T16:52:52.026Z,6.39
2022-11-29T16:55:21.650Z,6.59
2022-11-29T16:57:48.954Z,6.59
2022-11-29T17:00:23.696Z,6.47
2022-11-29T17:02:50.586Z,6.54
2022-11-29T17:05:17.240Z,6.44
2022-11-29T17:07:44.215Z,6.44
2022-11-29T17:10:16.509Z,6.49
2022-11-29T17:12:47.796Z,6.45
2022-11-29T17:15:15.174Z,6.38
2022-11-29T17:17:43.284Z,6.69
2022-11-29T17:20:12.341Z,6.67
2022-11-29T17:22:39.299Z,6.39
2022-11-29T17:25:06.532Z,6.44
2022-11-29T17:27:33.108Z,6.31
2022-11-29T17:29:59.764Z,6.47
2022-11-29T17:32:26.989Z,6.44
2022-11-29T17:34:54.005Z,6.51
2022-11-29T17:37:20.656Z,6.51
2022-11-29T17:39:49.122Z,6.63
2022-11-29T17:42:15.833Z,6.65
2022-11-29T17:44:42.576Z,6.43
2022-11-29T17:47:09.154Z,6.58
2022-11-29T17:49:35.794Z,6.59
2022-11-29T17:52:02.741Z,6.60
2022-11-29T17:54:32.951Z,6.72
2022-11-29T17:57:00.767Z,6.21
2022-11-29T17:59:27.384Z,6.48
2022-11-29T18:01:54.107Z,6.58
2022-11-29T18:04:20.810Z,6.58
2022-11-29T18:06:50.287Z,6.16
2022-11-29T18:09:18.523Z,6.17
2022-11-29T18:11:48.673Z,6.24
2022-11-29T18:14:19.310Z,6.21
2022-11-29T18:16:46.120Z,6.33
2022-11-29T18:19:15.671Z,6.25
2022-11-29T18:21:42.728Z,6.02
2022-11-29T18:24:09.859Z,6.08
2022-11-29T18:26:37.618Z,6.47
2022-11-29T18:29:05.769Z,6.51
2022-11-29T18:31:35.189Z,6.39
2022-11-29T18:34:06.252Z,6.24
2022-11-29T18:36:35.332Z,6.63
2022-11-29T18:39:10.916Z,6.18
2022-11-29T18:41:38.226Z,6.25
2022-11-29T18:44:09.957Z,6.46
2022-11-29T18:46:37.850Z,6.49
2022-11-29T18:49:07.195Z,6.35
2022-11-29T18:51:35.191Z,6.27
2022-11-29T18:54:02.448Z,6.05
2022-11-29T18:56:30.806Z,6.34
2022-11-29T18:59:03.332Z,6.61
2022-11-29T19:01:32.481Z,6.39
2022-11-29T19:04:00.554Z,6.57
2022-11-29T19:06:37.155Z,6.66
2022-11-29T19:09:06.951Z,6.76
2022-11-29T19:11:34.608Z,6.41
2022-11-29T19:14:03.263Z,6.61
2022-11-29T19:16:32.858Z,6.41
2022-11-29T19:19:00.600Z,6.31
2022-11-29T19:21:28.397Z,6.75
2022-11-29T19:23:57.498Z,6.20
2022-11-29T19:26:26.712Z,6.16
2022-11-29T19:28:53.809Z,6.24
2022-11-29T19:31:23.961Z,6.43
2022-11-29T19:33:52.602Z,6.59
2022-11-29T19:36:21.517Z,6.68
2022-11-29T19:38:53.161Z,6.66
2022-11-29T19:41:26.624Z,6.63
2022-11-29T19:43:55.508Z,6.72
2022-11-29T19:46:24.956Z,6.58
2022-11-29T19:48:53.230Z,6.14
2022-11-29T19:51:20.625Z,6.32
2022-11-29T19:53:48.313Z,6.62
2022-11-29T19:56:16.865Z,6.77
2022-11-29T19:58:44.349Z,6.49
2022-11-29T20:01:15.682Z,6.96
2022-11-29T20:03:43.292Z,6.68
2022-11-29T20:06:10.056Z,6.02
2022-11-29T20:08:38.292Z,5.93
2022-11-29T20:11:13.766Z,6.36
2022-11-29T20:13:42.721Z,6.02
2022-11-29T20:16:12.522Z,6.35
2022-11-29T20:18:44.602Z,6.57
2022-11-29T20:21:36.365Z,6.66
2022-11-29T20:24:06.133Z,6.74
2022-11-29T20:26:35.933Z,6.60
2022-11-29T20:29:03.326Z,6.41
2022-11-29T20:31:31.977Z,6.08
2022-11-29T20:33:59.126Z,6.10
2022-11-29T20:36:44.624Z,6.10
2022-11-29T20:39:28.961Z,6.31
2022-11-29T20:42:26.310Z,6.49
2022-11-29T20:44:57.359Z,6.30
2022-11-29T20:47:32.593Z,6.55
2022-11-29T20:49:59.309Z,6.38
2022-11-29T20:52:44.701Z,6.19
2022-11-29T20:55:11.377Z,6.44
2022-11-29T20:57:38.408Z,6.36
2022-11-29T21:00:11.457Z,6.36
2022-11-29T21:02:38.338Z,6.32
2022-11-29T21:05:05.957Z,6.25
2022-11-29T21:07:32.640Z,6.53
2022-11-29T21:10:01.411Z,6.18
2022-11-29T21:12:29.420Z,6.49
2022-11-29T21:14:56.564Z,6.68
2022-11-29T21:17:27.544Z,6.68
2022-11-29T21:19:58.723Z,6.37
2022-11-29T21:22:51.140Z,6.32
2022-11-29T21:25:48.884Z,6.18
2022-11-29T21:28:16.440Z,6.55
2022-11-29T21:30:43.952Z,6.28
2022-11-29T21:33:11.408Z,6.64
2022-11-29T21:35:42.212Z,6.62
2022-11-29T21:38:14.688Z,6.58
2022-11-29T21:40:41.338Z,5.91
2022-11-29T21:43:07.887Z,6.34
2022-11-29T21:45:34.521Z,6.48
2022-11-29T21:48:01.170Z,6.52
2022-11-29T21:50:27.806Z,6.67
2022-11-29T21:52:54.368Z,6.54
2022-11-29T21:55:21.004Z,6.60
2022-11-29T21:57:47.550Z,6.49
2022-11-29T22:00:14.713Z,6.55
2022-11-29T22:02:41.368Z,6.58
2022-11-29T22:05:09.578Z,6.52
2022-11-29T22:07:36.361Z,6.44
2022-11-29T22:10:09.940Z,6.54
2022-11-29T22:12:49.354Z,6.34
2022-11-29T22:15:24.166Z,6.54
2022-11-29T22:17:53.390Z,6.48
2022-11-29T22:20:20.531Z,6.52
2022-11-29T22:22:48.527Z,6.69
2022-11-29T22:25:15.866Z,6.60
2022-11-29T22:27:42.454Z,6.70
2022-11-29T22:30:09.392Z,6.56
2022-11-29T22:32:35.992Z,6.61
2022-11-29T22:35:02.549Z,6.72
2022-11-29T22:37:29.127Z,6.47
2022-11-29T22:39:55.893Z,6.52
2022-11-29T22:42:22.509Z,6.52
2022-11-29T22:44:49.249Z,6.60
2022-11-29T22:47:15.936Z,6.70
2022-11-29T22:49:44.462Z,6.61
2022-11-29T22:52:11.103Z,6.56
2022-11-29T22:54:37.719Z,6.73
2022-11-29T22:57:04.329Z,6.68
2022-11-29T22:59:30.965Z,6.46
2022-11-29T23:01:57.690Z,6.44
2022-11-29T23:04:24.281Z,6.64
2022-11-29T23:06:50.906Z,6.73
2022-11-29T23:09:21.700Z,6.63
2022-11-29T23:11:54.172Z,6.75
2022-11-29T23:14:22.176Z,6.58
2022-11-29T23:16:49.058Z,6.76
2022-11-29T23:19:16.332Z,6.46
2022-11-29T23:21:45.623Z,6.37
2022-11-29T23:24:13.429Z,6.51
2022-11-29T23:26:43.480Z,6.52
2022-11-29T23:29:13.275Z,6.31
2022-11-29T23:31:40.095Z,6.64
2022-11-29T23:34:07.173Z,6.47
2022-11-29T23:36:34.030Z,6.42
2022-11-29T23:39:04.190Z,6.34
2022-11-29T23:41:30.806Z,6.36
2022-11-29T23:43:59.694Z,6.26
2022-11-29T23:46:26.369Z,6.24
2022-11-29T23:48:53.085Z,6.06
2022-11-29T23:51:20.255Z,6.25
2022-11-29T23:53:51.111Z,6.49
2022-11-29T23:56:18.550Z,6.55
2022-11-29T23:58:45.513Z,6.49
